Time;durP1;ratioP1;P1;durP2;ratioP2;P2;SDS_P1;SDS_P2;PMS_P1;PMS_P2;Temp;Humidity;BMP_temperature;BMP_pressure;BME280_temperature;BME280_humidity;BME280_pressure;Samples;Min_cycle;Max_cycle;Signal;HPM_P1;HPM_P2
2023/06/26 00:00:26;;;;;;;12.82;6.22;;;;;;;23.14;50.63;98077.31;4410156;32;20133;-79
2023/06/26 00:02:53;;;;;;;14.90;5.62;;;;;;;22.62;51.89;98081.28;4410340;32;20075;-79
2023/06/26 00:05:20;;;;;;;13.02;5.53;;;;;;;22.03;53.36;98075.16;4410044;32;20078;-77
2023/06/26 00:07:47;;;;;;;13.02;5.80;;;;;;;21.86;53.80;98074.03;4410256;32;20102;-79
2023/06/26 00:10:16;;;;;;;14.02;6.37;;;;;;;21.64;55.06;98072.44;4409958;32;20080;-76
2023/06/26 00:12:42;;;;;;;11.48;5.47;;;;;;;22.51;52.04;98069.09;4410280;32;20403;-79
2023/06/26 00:15:09;;;;;;;13.82;6.15;;;;;;;22.37;52.16;98066.91;4410254;32;20078;-79
2023/06/26 00:17:37;;;;;;;13.68;6.30;;;;;;;22.29;52.15;98072.03;4409907;32;20062;-77
2023/06/26 00:22:55;;;;;;;11.60;5.47;;;;;;;21.69;54.45;98060.72;4410325;32;20131;-78
2023/06/26 00:25:22;;;;;;;12.48;5.72;;;;;;;22.03;53.90;98067.28;4409933;32;20164;-77
2023/06/26 00:27:49;;;;;;;12.15;5.62;;;;;;;21.90;53.78;98062.28;4410175;32;20098;-78
2023/06/26 00:30:19;;;;;;;13.45;5.72;;;;;;;22.21;53.21;98062.19;4409932;32;20082;-78
2023/06/26 00:32:46;;;;;;;11.38;5.70;;;;;;;22.56;52.21;98068.69;4409932;32;20079;-78
2023/06/26 00:35:13;;;;;;;10.02;5.18;;;;;;;22.54;51.69;98058.28;4397324;32;20062;-79
2023/06/26 00:37:40;;;;;;;14.38;5.57;;;;;;;22.48;52.52;98058.88;4410062;32;20099;-79
2023/06/26 00:40:12;;;;;;;10.57;5.45;;;;;;;22.89;50.85;98052.47;4409740;32;20066;-79
2023/06/26 00:42:39;;;;;;;12.68;5.62;;;;;;;22.45;51.87;98053.91;4409766;32;20090;-79
2023/06/26 00:45:06;;;;;;;13.50;5.45;;;;;;;22.52;51.55;98062.88;4409536;32;20067;-78
2023/06/26 00:47:33;;;;;;;12.50;5.87;;;;;;;21.74;53.91;98048.84;4397124;32;20066;-77
2023/06/26 00:50:00;;;;;;;13.02;5.87;;;;;;;21.79;54.09;98058.94;4410125;32;20059;-79
2023/06/26 00:52:27;;;;;;;11.48;5.43;;;;;;;21.54;54.55;98050.59;4396966;32;20062;-78
2023/06/26 00:54:55;;;;;;;14.73;5.25;;;;;;;21.92;53.55;98055.09;4410093;32;20112;-78
2023/06/26 00:57:22;;;;;;;14.10;5.55;;;;;;;21.88;53.13;98055.50;4409870;32;20069;-79
2023/06/26 01:00:10;;;;;;;12.18;5.60;;;;;;;21.83;53.49;98047.22;4409696;32;20135;-76
2023/06/26 01:02:38;;;;;;;12.25;5.20;;;;;;;22.29;52.19;98043.94;4410108;32;20066;-79
2023/06/26 01:05:06;;;;;;;14.35;5.50;;;;;;;22.38;51.91;98042.28;4409795;32;20097;-78
2023/06/26 01:07:37;;;;;;;12.95;5.47;;;;;;;22.22;52.10;98048.06;4409640;32;20102;-76
2023/06/26 01:10:07;;;;;;;15.50;5.57;;;;;;;21.80;53.32;98039.56;4397342;32;20063;-79
2023/06/26 01:12:35;;;;;;;16.48;6.05;;;;;;;21.45;54.68;98038.25;4410000;32;20126;-78
2023/06/26 01:15:02;;;;;;;15.18;5.85;;;;;;;21.63;54.38;98036.66;4409539;32;20078;-77
2023/06/26 01:17:32;;;;;;;13.02;5.72;;;;;;;21.52;54.83;98033.31;4409774;32;20055;-78
2023/06/26 01:20:25;;;;;;;14.95;5.53;;;;;;;21.80;54.27;98029.06;4409605;32;20110;-78
2023/06/26 01:23:29;;;;;;;13.25;5.85;;;;;;;21.18;56.30;98033.59;4409856;32;20125;-78
2023/06/26 01:26:11;;;;;;;12.20;5.12;;;;;;;21.88;54.55;98039.72;4395276;32;20062;-79
2023/06/26 01:28:55;;;;;;;13.62;5.40;;;;;;;21.25;56.24;98033.87;4409449;32;20063;-80
2023/06/26 01:31:22;;;;;;;16.70;6.53;;;;;;;21.39;56.20;98033.56;4409724;32;20067;-78
2023/06/26 01:33:49;;;;;;;14.68;5.85;;;;;;;21.37;55.74;98032.84;4409518;32;20081;-78
2023/06/26 01:36:16;;;;;;;13.57;5.53;;;;;;;20.54;57.90;98039.06;4409457;32;20104;-77
2023/06/26 01:39:27;;;;;;;14.90;5.65;;;;;;;20.43;58.50;98036.50;4409542;32;20062;-79
2023/06/26 01:41:54;;;;;;;13.18;5.40;;;;;;;21.20;56.24;98022.97;4409365;32;20110;-77
2023/06/26 01:44:34;;;;;;;16.12;5.05;;;;;;;21.58;54.56;98030.97;4408836;32;20175;-79
2023/06/26 01:47:03;;;;;;;11.73;5.40;;;;;;;21.88;53.25;98031.84;4397077;32;20105;-78
2023/06/26 01:50:21;;;;;;;13.30;5.70;;;;;;;21.53;53.91;98027.09;4409270;32;20062;-78
2023/06/26 01:53:13;;;;;;;14.67;5.90;;;;;;;21.24;54.87;98022.56;4409344;32;20122;-79
2023/06/26 01:55:50;;;;;;;14.40;5.35;;;;;;;21.89;53.21;98018.59;4409186;32;20085;-76
2023/06/26 01:58:20;;;;;;;13.82;5.45;;;;;;;21.73;53.82;98015.69;4396605;32;20062;-78
2023/06/26 02:00:47;;;;;;;11.07;5.53;;;;;;;21.22;55.24;98023.66;4409360;32;20051;-78
2023/06/26 02:03:14;;;;;;;11.20;5.37;;;;;;;21.16;55.76;98016.31;4408841;32;20051;-77
2023/06/26 02:05:41;;;;;;;11.18;5.28;;;;;;;21.34;55.11;98014.75;4409188;32;20115;-78
2023/06/26 02:08:09;;;;;;;14.23;5.10;;;;;;;21.79;53.51;98014.28;4409444;32;20070;-78
2023/06/26 02:13:47;;;;;;;12.37;5.30;;;;;;;21.19;55.39;98002.94;4409095;32;20067;-78
2023/06/26 02:16:14;;;;;;;11.12;5.40;;;;;;;21.79;53.45;97995.91;4409176;32;20111;-78
2023/06/26 02:19:08;;;;;;;11.95;5.32;;;;;;;21.61;53.85;98006.25;4408849;32;20194;-79
2023/06/26 02:21:35;;;;;;;12.73;5.62;;;;;;;21.61;54.28;98007.09;4409198;32;20059;-78
2023/06/26 02:24:02;;;;;;;12.18;4.75;;;;;;;21.57;54.19;98002.22;4408683;32;20098;-76
2023/06/26 02:26:29;;;;;;;11.15;5.30;;;;;;;21.34;54.86;97999.00;4408867;32;20066;-78
2023/06/26 02:29:13;;;;;;;10.98;5.10;;;;;;;21.37;54.72;98002.22;4408734;32;20074;-79
2023/06/26 02:31:40;;;;;;;11.55;4.62;;;;;;;21.74;53.28;98001.56;4408749;32;20098;-76
2023/06/26 02:34:07;;;;;;;12.27;5.50;;;;;;;21.81;53.33;98002.69;4408846;32;20067;-78
2023/06/26 02:36:34;;;;;;;11.75;5.68;;;;;;;21.29;55.03;98006.47;4409027;32;20079;-78
2023/06/26 02:39:05;;;;;;;12.13;5.40;;;;;;;21.29;54.51;98009.09;4395727;32;20126;-79
2023/06/26 02:41:32;;;;;;;11.50;5.12;;;;;;;21.80;53.38;98010.69;4409046;32;20089;-78
2023/06/26 02:43:59;;;;;;;12.70;5.37;;;;;;;21.90;53.12;98008.91;4408690;32;20066;-78
2023/06/26 02:46:26;;;;;;;12.45;5.43;;;;;;;22.12;52.10;98007.88;4408420;32;20097;-77
2023/06/26 02:49:10;;;;;;;10.85;5.15;;;;;;;21.73;53.08;98001.72;4408818;32;20066;-79
2023/06/26 02:51:38;;;;;;;10.63;5.22;;;;;;;21.36;54.48;98007.56;4408577;32;20063;-76
2023/06/26 02:54:04;;;;;;;12.77;5.68;;;;;;;21.56;54.16;98014.53;4408392;32;20098;-78
2023/06/26 02:56:31;;;;;;;12.35;5.18;;;;;;;21.27;55.19;98011.84;4409291;32;20118;-79
2023/06/26 02:58:58;;;;;;;11.00;5.32;;;;;;;21.30;55.19;98013.38;4410594;32;20066;-77
2023/06/26 03:01:26;;;;;;;11.35;5.53;;;;;;;22.04;53.32;98015.56;4410848;32;20091;-78
2023/06/26 03:03:53;;;;;;;10.95;5.05;;;;;;;21.34;55.10;98001.63;4410609;32;20109;-78
2023/06/26 03:06:20;;;;;;;13.18;5.22;;;;;;;21.80;54.08;98008.94;4410436;32;20066;-77
2023/06/26 03:08:55;;;;;;;11.05;4.72;;;;;;;21.94;53.54;98008.50;4410705;32;20063;-79
2023/06/26 03:11:22;;;;;;;12.73;5.50;;;;;;;22.11;53.25;98004.37;4410887;32;20059;-78
2023/06/26 03:13:49;;;;;;;11.18;5.12;;;;;;;22.00;53.72;98004.47;4410459;32;20134;-77
2023/06/26 03:16:16;;;;;;;14.13;5.60;;;;;;;22.36;52.71;98004.78;4410553;32;20062;-78
2023/06/26 03:19:06;;;;;;;11.77;5.40;;;;;;;22.41;52.77;98007.81;4410526;32;20066;-79
2023/06/26 03:21:33;;;;;;;10.60;5.47;;;;;;;22.54;52.57;98010.97;4410502;32;20098;-77
2023/06/26 03:24:00;;;;;;;11.07;5.60;;;;;;;22.72;52.10;98011.06;4410629;32;20059;-79
2023/06/26 03:26:27;;;;;;;13.35;5.07;;;;;;;23.17;50.95;98010.38;4410496;32;20128;-79
2023/06/26 03:28:56;;;;;;;11.55;5.28;;;;;;;23.40;50.22;98016.94;4410263;32;20055;-79
2023/06/26 03:31:23;;;;;;;10.63;5.28;;;;;;;23.40;49.98;98016.94;4410629;32;20073;-79
2023/06/26 03:33:50;;;;;;;11.75;5.62;;;;;;;23.53;49.65;98021.88;4410174;32;20094;-76
2023/06/26 03:36:17;;;;;;;13.02;5.75;;;;;;;23.81;48.77;98014.75;4410435;32;20085;-78
2023/06/26 03:38:56;;;;;;;11.00;5.03;;;;;;;23.59;49.26;98022.13;4410433;32;20071;-79
2023/06/26 03:41:24;;;;;;;10.98;5.53;;;;;;;23.62;49.42;98018.38;4410294;32;20055;-77
2023/06/26 03:43:50;;;;;;;12.00;5.50;;;;;;;23.85;49.22;98024.88;4410417;32;20101;-79
2023/06/26 03:46:17;;;;;;;12.60;5.85;;;;;;;24.00;48.80;98016.44;4410398;32;20075;-79
2023/06/26 03:49:15;;;;;;;12.57;5.68;;;;;;;24.36;48.05;98020.75;4410220;32;20066;-79
2023/06/26 03:51:42;;;;;;;10.88;5.18;;;;;;;24.78;47.63;98020.06;4410161;32;20103;-79
2023/06/26 03:54:09;;;;;;;11.40;5.55;;;;;;;25.40;45.93;98026.00;4410041;32;20079;-79
2023/06/26 03:56:36;;;;;;;9.98;5.30;;;;;;;25.72;44.95;98027.09;4410126;32;20077;-77
2023/06/26 03:59:11;;;;;;;11.12;5.07;;;;;;;26.04;43.77;98027.16;4410247;32;20089;-79
2023/06/26 04:01:38;;;;;;;11.70;4.95;;;;;;;25.86;44.27;98026.50;4410257;32;20073;-78
2023/06/26 04:04:05;;;;;;;10.93;5.07;;;;;;;26.46;43.18;98028.88;4409948;32;20087;-78
2023/06/26 04:06:32;;;;;;;9.50;4.45;;;;;;;26.75;42.59;98029.19;4410173;32;20134;-79
2023/06/26 04:12:42;;;;;;;10.90;5.37;;;;;;;26.72;42.97;98028.69;4410424;32;20073;-77
2023/06/26 04:15:09;;;;;;;10.75;5.10;;;;;;;26.81;42.32;98022.41;4410130;32;20067;-79
2023/06/26 04:17:36;;;;;;;9.90;4.93;;;;;;;27.08;41.83;98026.47;4410160;32;20119;-77
2023/06/26 04:20:06;;;;;;;11.05;4.70;;;;;;;27.06;42.07;98031.12;4410072;32;20084;-79
2023/06/26 04:22:33;;;;;;;10.85;4.90;;;;;;;27.21;42.25;98032.06;4410138;32;20106;-79
2023/06/26 04:25:02;;;;;;;11.35;5.00;;;;;;;27.57;40.81;98027.13;4409806;32;20123;-77
2023/06/26 04:27:30;;;;;;;10.07;4.62;;;;;;;28.16;39.87;98029.25;4410096;32;20075;-79
2023/06/26 04:30:40;;;;;;;10.52;4.90;;;;;;;28.84;38.86;98039.00;4409896;32;20066;-77
2023/06/26 04:33:11;;;;;;;10.02;4.75;;;;;;;28.94;39.08;98036.94;4410167;32;20062;-79
2023/06/26 04:35:38;;;;;;;11.38;4.93;;;;;;;29.81;37.41;98033.56;4409972;32;20127;-79
2023/06/26 04:38:05;;;;;;;10.27;4.80;;;;;;;29.95;37.03;98046.00;4409902;32;20111;-77
2023/06/26 04:40:39;;;;;;;10.40;4.68;;;;;;;30.51;36.24;98046.97;4409865;32;20125;-79
2023/06/26 04:43:06;;;;;;;9.85;5.10;;;;;;;31.28;34.59;98046.12;4409957;32;20062;-79
2023/06/26 04:45:33;;;;;;;10.13;4.95;;;;;;;32.44;33.17;98051.47;4409796;32;20059;-77
2023/06/26 04:48:00;;;;;;;9.65;4.43;;;;;;;33.22;31.95;98049.75;4410112;32;20067;-79
2023/06/26 04:50:53;;;;;;;9.23;4.82;;;;;;;34.14;31.03;98045.09;4409940;32;20212;-79
2023/06/26 04:53:21;;;;;;;11.02;4.65;;;;;;;34.12;30.81;98044.47;4410014;32;20073;-79
2023/06/26 04:55:49;;;;;;;9.15;4.68;;;;;;;33.17;32.47;98052.22;4410052;32;20059;-79
2023/06/26 04:58:16;;;;;;;9.30;4.55;;;;;;;32.43;33.53;98042.63;4409696;32;20112;-77
2023/06/26 05:00:45;;;;;;;9.52;4.90;;;;;;;32.84;33.36;98048.78;4409869;32;20079;-80
2023/06/26 05:03:13;;;;;;;13.25;4.90;;;;;;;34.03;31.75;98051.94;4409906;32;20158;-79
2023/06/26 05:05:40;;;;;;;10.45;4.90;;;;;;;35.17;29.75;98058.88;4409489;32;20059;-77
2023/06/26 05:08:14;;;;;;;11.25;4.72;;;;;;;35.65;28.55;98058.16;4409998;32;20107;-80
2023/06/26 05:11:00;;;;;;;9.13;4.25;;;;;;;35.95;28.07;98052.03;4409759;32;20114;-79
2023/06/26 05:13:27;;;;;;;10.77;4.22;;;;;;;34.29;29.62;98053.62;4396944;32;20102;-77
2023/06/26 05:15:54;;;;;;;8.80;4.20;;;;;;;32.72;31.65;98044.03;4409778;32;20054;-79
2023/06/26 05:18:24;;;;;;;10.57;5.07;;;;;;;31.09;33.92;98044.97;4409278;32;20075;-81
2023/06/26 05:20:52;;;;;;;9.05;4.78;;;;;;;29.99;36.11;98049.09;4409298;32;20079;-77
2023/06/26 05:23:19;;;;;;;8.05;4.50;;;;;;;30.30;36.08;98046.97;4409789;32;20092;-79
2023/06/26 05:25:46;;;;;;;10.40;5.07;;;;;;;29.00;38.35;98040.69;4409276;32;20097;-79
2023/06/26 05:28:15;;;;;;;9.32;4.70;;;;;;;29.26;38.54;98054.34;4409419;32;20208;-77
2023/06/26 05:31:04;;;;;;;8.80;4.60;;;;;;;28.81;39.74;98050.78;4409553;32;20104;-79
2023/06/26 05:33:35;;;;;;;10.38;4.75;;;;;;;28.23;40.94;98052.25;4408784;32;20054;-76
2023/06/26 05:36:04;;;;;;;9.10;4.50;;;;;;;26.77;44.07;98045.72;4408939;32;20097;-76
2023/06/26 05:38:43;;;;;;;11.05;5.07;;;;;;;27.48;43.17;98054.66;4409418;32;20079;-81
2023/06/26 05:41:10;;;;;;;10.98;4.37;;;;;;;27.34;43.63;98050.09;4409578;32;20090;-77
2023/06/26 05:43:37;;;;;;;10.07;4.57;;;;;;;27.36;43.40;98053.38;4409400;32;20054;-78
2023/06/26 05:46:04;;;;;;;9.98;4.78;;;;;;;27.56;43.25;98054.62;4409319;32;20122;-79
2023/06/26 05:48:53;;;;;;;9.60;4.37;;;;;;;26.99;44.80;98062.72;4409061;32;20054;-78
2023/06/26 05:51:20;;;;;;;11.23;5.53;;;;;;;27.03;44.69;98056.13;4409626;32;20086;-78
2023/06/26 05:53:50;;;;;;;11.45;5.00;;;;;;;26.38;46.27;98064.09;4524277;27;20148;-77
2023/06/26 05:59:19;;;;;;;8.88;4.37;;;;;;;26.10;47.42;98063.53;4404186;27;19994;-78
2023/06/26 06:01:46;;;;;;;9.25;4.53;;;;;;;25.92;48.15;98066.31;4374443;32;20160;-78
2023/06/26 06:04:13;;;;;;;9.18;4.30;;;;;;;25.99;48.37;98060.38;4380450;32;20082;-78
2023/06/26 06:06:40;;;;;;;9.45;4.35;;;;;;;26.00;48.71;98060.22;4379311;32;20437;-79
2023/06/26 06:11:45;;;;;;;9.02;4.43;;;;;;;26.55;47.58;98062.28;4366276;30;20158;-83
2023/06/26 06:14:12;;;;;;;9.23;4.00;;;;;;;26.57;47.82;98055.00;4379454;32;20094;-85
2023/06/26 06:16:45;;;;;;;9.25;4.07;;;;;;;27.29;45.33;98055.88;4381400;32;20141;-82
2023/06/26 06:19:13;;;;;;;8.38;3.80;;;;;;;28.17;44.04;98055.59;4379206;32;20098;-82
2023/06/26 06:21:40;;;;;;;9.98;3.92;;;;;;;27.92;43.33;98060.25;4379099;32;20099;-81
2023/06/26 06:24:07;;;;;;;8.63;3.78;;;;;;;28.89;41.06;98057.06;4365246;32;20177;-82
2023/06/26 06:26:34;;;;;;;11.52;4.20;;;;;;;29.98;38.80;98060.75;4379134;32;20129;-81
2023/06/26 06:29:01;;;;;;;9.60;3.95;;;;;;;30.60;37.41;98060.97;4378948;32;20161;-82
2023/06/26 06:31:28;;;;;;;8.68;4.00;;;;;;;31.02;36.84;98065.41;4380065;32;20103;-82
2023/06/26 06:33:55;;;;;;;8.25;3.72;;;;;;;31.55;36.02;98060.41;4367433;32;20167;-82
2023/06/26 06:36:22;;;;;;;8.43;3.65;;;;;;;30.58;36.18;98056.84;4380668;32;20104;-82
2023/06/26 06:38:49;;;;;;;9.23;3.80;;;;;;;29.76;37.53;98054.56;4380858;32;20178;-82
2023/06/26 06:41:16;;;;;;;8.43;3.75;;;;;;;30.48;36.02;98058.00;4381111;32;20139;-82
2023/06/26 06:43:43;;;;;;;7.65;3.67;;;;;;;30.66;36.14;98054.91;4380412;32;20106;-82
2023/06/26 06:46:10;;;;;;;8.38;3.75;;;;;;;30.77;35.26;98056.22;4380778;32;20170;-83
2023/06/26 06:48:37;;;;;;;7.68;3.55;;;;;;;30.24;36.89;98058.41;4380798;32;20158;-82
2023/06/26 06:51:04;;;;;;;7.68;3.33;;;;;;;30.55;34.98;98058.06;4380542;32;20102;-82
2023/06/26 06:53:32;;;;;;;7.12;3.45;;;;;;;30.82;34.01;98064.44;4380774;32;20094;-83
2023/06/26 06:55:59;;;;;;;6.78;3.40;;;;;;;30.41;34.48;98056.28;4380859;32;20142;-82
2023/06/26 06:58:26;;;;;;;7.93;3.22;;;;;;;30.50;35.22;98050.63;4380489;32;20091;-82
2023/06/26 07:00:53;;;;;;;7.57;3.37;;;;;;;29.40;36.32;98050.03;4380740;32;20153;-81
2023/06/26 07:03:21;;;;;;;8.57;3.53;;;;;;;29.94;36.30;98058.47;4380702;32;20112;-82
2023/06/26 07:05:48;;;;;;;6.43;3.00;;;;;;;29.60;36.30;98047.66;4366777;32;20106;-82
2023/06/26 07:08:15;;;;;;;8.02;3.33;;;;;;;29.54;36.20;98059.00;4380824;32;20153;-82
2023/06/26 07:10:43;;;;;;;8.40;3.50;;;;;;;29.99;34.77;98049.09;4367209;32;20113;-82
2023/06/26 07:13:11;;;;;;;7.28;3.25;;;;;;;30.49;35.06;98054.31;4380474;32;20136;-81
2023/06/26 07:15:38;;;;;;;7.30;3.20;;;;;;;30.58;33.76;98059.50;4380762;32;20105;-82
2023/06/26 07:18:05;;;;;;;7.22;3.25;;;;;;;30.40;33.88;98058.13;4380735;32;20095;-83
2023/06/26 07:20:32;;;;;;;6.95;3.25;;;;;;;31.07;33.46;98056.84;4367025;32;20164;-82
2023/06/26 07:22:59;;;;;;;5.70;2.75;;;;;;;31.20;33.38;98058.78;4380820;32;20121;-82
2023/06/26 07:25:26;;;;;;;6.65;3.17;;;;;;;31.18;33.36;98058.97;4380352;32;20101;-83
2023/06/26 07:27:53;;;;;;;5.90;2.65;;;;;;;31.03;33.71;98074.22;4380799;32;20503;-81
2023/06/26 07:30:20;;;;;;;8.32;3.10;;;;;;;31.76;33.21;98069.34;4380464;32;20467;-81
2023/06/26 07:32:47;;;;;;;6.30;2.90;;;;;;;31.92;32.06;98069.00;4380305;32;20487;-81
2023/06/26 07:35:15;;;;;;;7.87;2.80;;;;;;;30.93;33.90;98073.75;4380522;32;20141;-81
2023/06/26 07:37:42;;;;;;;6.12;3.03;;;;;;;31.45;33.45;98064.44;4380542;32;20210;-81
2023/06/26 07:40:10;;;;;;;6.93;2.90;;;;;;;31.25;32.92;98067.00;4380117;32;20102;-81
2023/06/26 07:42:36;;;;;;;7.32;2.87;;;;;;;31.04;33.41;98065.22;4379979;32;20160;-81
2023/06/26 07:45:10;;;;;;;8.40;3.30;;;;;;;31.71;32.79;98063.75;4380474;32;20153;-81
2023/06/26 07:47:38;;;;;;;6.93;3.17;;;;;;;31.98;31.74;98076.19;4380133;32;20158;-81
2023/06/26 07:50:05;;;;;;;6.43;3.00;;;;;;;31.46;32.45;98066.09;4380541;32;20105;-79
2023/06/26 07:52:32;;;;;;;6.05;3.03;;;;;;;31.66;32.97;98078.50;4367073;32;20422;-79
2023/06/26 07:54:59;;;;;;;8.05;3.15;;;;;;;30.79;32.98;98071.00;4380108;32;20475;-80
2023/06/26 07:57:26;;;;;;;6.40;2.65;;;;;;;30.80;33.05;98067.31;4380442;32;20106;-80
2023/06/26 07:59:53;;;;;;;6.12;2.65;;;;;;;29.96;34.58;98072.41;4380316;32;20591;-83
2023/06/26 08:02:20;;;;;;;8.02;2.90;;;;;;;28.70;36.13;98072.47;4366710;32;20099;-83
2023/06/26 08:04:47;;;;;;;8.77;2.85;;;;;;;30.26;34.27;98075.00;4381530;32;20079;-83
2023/06/26 08:07:14;;;;;;;7.60;2.92;;;;;;;30.52;35.05;98079.75;4386468;32;20719;-83
2023/06/26 08:09:44;;;;;;;7.32;2.83;;;;;;;31.30;33.54;98069.91;4383881;32;20077;-83
2023/06/26 08:12:13;;;;;;;6.05;2.75;;;;;;;30.92;32.76;98075.59;4387194;32;20067;-84
2023/06/26 08:14:40;;;;;;;6.72;3.08;;;;;;;31.27;33.18;98076.47;4384573;32;20148;-84
2023/06/26 08:17:07;;;;;;;8.02;3.10;;;;;;;32.33;31.81;98074.25;4383418;32;20138;-83
2023/06/26 08:19:34;;;;;;;7.07;3.20;;;;;;;32.45;31.92;98079.81;4384661;32;20108;-83
2023/06/26 08:22:01;;;;;;;6.85;2.90;;;;;;;32.98;30.91;98079.84;4380331;32;20086;-83
2023/06/26 08:24:28;;;;;;;6.00;2.80;;;;;;;32.68;31.20;98082.91;4384423;32;20178;-83
2023/06/26 08:26:55;;;;;;;6.62;3.05;;;;;;;32.62;31.13;98080.22;4380706;32;20125;-83
2023/06/26 08:29:22;;;;;;;7.55;3.00;;;;;;;31.23;32.23;98082.38;4379988;32;20102;-83
2023/06/26 08:31:49;;;;;;;5.65;2.97;;;;;;;31.10;33.33;98096.41;4381590;32;20145;-84
2023/06/26 08:34:15;;;;;;;7.78;3.03;;;;;;;31.77;32.05;98081.66;4382247;32;20059;-84
2023/06/26 08:36:44;;;;;;;6.47;2.70;;;;;;;31.38;32.31;98091.09;4385813;32;20442;-84
2023/06/26 08:39:13;;;;;;;7.00;2.97;;;;;;;31.90;31.56;98073.69;4383175;32;20066;-84
2023/06/26 08:41:40;;;;;;;6.97;3.20;;;;;;;32.30;31.37;98082.66;4386278;32;20117;-84
2023/06/26 08:44:07;;;;;;;6.18;3.03;;;;;;;31.21;32.73;98084.44;4381639;32;20099;-81
2023/06/26 08:46:34;;;;;;;7.12;3.20;;;;;;;31.98;33.05;98086.03;4368760;32;20103;-85
2023/06/26 08:49:06;;;;;;;6.72;3.03;;;;;;;31.78;32.73;98084.09;4370412;32;20118;-83
2023/06/26 08:51:34;;;;;;;7.57;3.40;;;;;;;32.07;32.30;98085.66;4387341;32;20853;-84
2023/06/26 08:54:01;;;;;;;7.12;3.20;;;;;;;31.99;32.66;98085.00;4363382;32;20112;-84
2023/06/26 08:56:35;;;;;;;7.97;3.10;;;;;;;32.39;33.13;98080.59;4370724;32;20154;-84
2023/06/26 08:59:04;;;;;;;6.68;3.22;;;;;;;32.22;31.38;98085.47;4384882;32;20094;-84
2023/06/26 09:01:31;;;;;;;6.07;2.95;;;;;;;32.48;31.97;98082.06;4392506;32;20059;-84
2023/06/26 09:03:59;;;;;;;9.43;3.47;;;;;;;31.56;33.20;98080.72;4375207;32;20110;-84
2023/06/26 09:06:26;;;;;;;6.05;3.00;;;;;;;32.83;31.82;98082.69;4387969;32;20078;-84
2023/06/26 09:08:53;;;;;;;8.82;3.67;;;;;;;31.08;34.24;98082.47;4389215;32;20132;-84
2023/06/26 09:11:20;;;;;;;8.15;3.35;;;;;;;31.54;33.12;98066.75;4392242;32;20106;-84
2023/06/26 09:13:47;;;;;;;8.00;3.15;;;;;;;31.56;34.23;98074.56;4393226;32;20117;-83
2023/06/26 09:16:14;;;;;;;7.12;2.92;;;;;;;31.85;33.68;98074.28;4388277;32;20182;-85
2023/06/26 09:18:45;;;;;;;8.23;3.42;;;;;;;30.97;34.50;98075.84;4389065;32;20157;-83
2023/06/26 09:21:12;;;;;;;7.32;3.35;;;;;;;31.60;34.25;98075.81;4377312;32;20086;-84
2023/06/26 09:26:17;;;;;;;7.40;3.30;;;;;;;32.13;33.39;98076.84;4497482;27;20090;-85
2023/06/26 09:28:46;;;;;;;8.45;3.45;;;;;;;31.93;33.17;98068.78;4402724;32;20473;-84
2023/06/26 09:31:24;;;;;;;8.13;3.65;;;;;;;31.98;32.62;98060.16;4387983;32;20109;-84
2023/06/26 09:34:08;;;;;;;8.18;3.30;;;;;;;31.87;33.14;98068.75;4428833;27;20070;-83
2023/06/26 09:36:56;;;;;;;8.43;3.53;;;;;;;32.27;33.65;98066.19;4400801;32;20450;-84
2023/06/26 09:39:56;;;;;;;8.90;3.40;;;;;;;31.84;33.90;98066.50;4401430;32;20129;-84
2023/06/26 09:42:38;;;;;;;6.68;3.00;;;;;;;31.75;34.41;98065.84;4403955;32;20122;-83
2023/06/26 09:45:05;;;;;;;7.93;3.12;;;;;;;32.17;32.44;98061.25;4398607;32;20109;-84
2023/06/26 09:47:34;;;;;;;7.55;3.55;;;;;;;31.91;33.28;98062.00;4398959;32;20062;-84
2023/06/26 09:50:04;;;;;;;6.90;3.10;;;;;;;31.89;32.81;98058.69;4396981;32;20081;-84
2023/06/26 09:52:32;;;;;;;7.03;3.12;;;;;;;31.34;33.73;98066.66;4396693;32;20161;-84
2023/06/26 09:55:09;;;;;;;7.22;3.22;;;;;;;31.56;34.21;98070.03;4395658;32;20105;-83
2023/06/26 09:57:36;;;;;;;6.75;3.08;;;;;;;32.36;33.36;98057.81;4394648;32;20099;-83
2023/06/26 10:00:04;;;;;;;7.78;3.00;;;;;;;31.44;34.30;98054.81;4393902;32;20445;-83
2023/06/26 10:02:31;;;;;;;7.00;3.28;;;;;;;30.31;36.67;98058.47;4394502;32;20151;-82
2023/06/26 10:04:58;;;;;;;7.95;3.58;;;;;;;30.17;36.69;98068.16;4393562;32;20083;-83
2023/06/26 10:07:26;;;;;;;7.50;3.28;;;;;;;31.08;34.97;98055.81;4394130;32;20110;-83
2023/06/26 10:09:54;;;;;;;7.35;3.28;;;;;;;31.54;33.77;98058.75;4394317;32;20106;-84
2023/06/26 10:12:29;;;;;;;6.40;3.00;;;;;;;32.33;33.32;98054.75;4380762;32;20161;-85
2023/06/26 10:14:57;;;;;;;7.07;3.10;;;;;;;32.07;33.17;98053.62;4393859;32;20091;-84
2023/06/26 10:17:29;;;;;;;8.38;3.70;;;;;;;32.16;32.72;98049.75;4394247;32;20115;-84
2023/06/26 10:19:58;;;;;;;6.50;2.90;;;;;;;32.39;32.47;98048.56;4394348;32;20114;-85
2023/06/26 10:22:29;;;;;;;6.40;3.17;;;;;;;31.66;33.34;98056.34;4394101;32;20469;-85
2023/06/26 10:24:58;;;;;;;6.43;2.70;;;;;;;31.73;33.84;98040.38;4394207;32;20099;-84
2023/06/26 10:27:28;;;;;;;7.28;3.37;;;;;;;32.41;33.10;98049.19;4394110;32;20492;-84
2023/06/26 10:29:57;;;;;;;6.25;2.97;;;;;;;32.04;32.43;98045.22;4393620;32;20114;-84
2023/06/26 10:32:25;;;;;;;6.35;2.95;;;;;;;32.11;32.85;98051.38;4394170;32;20105;-84
2023/06/26 10:34:53;;;;;;;9.45;3.37;;;;;;;32.55;32.96;98042.84;4381001;32;20184;-83
2023/06/26 10:37:20;;;;;;;6.25;3.10;;;;;;;31.92;33.23;98047.66;4381425;32;20125;-83
2023/06/26 10:39:54;;;;;;;5.78;2.85;;;;;;;31.82;32.90;98047.22;4395197;32;20169;-83
2023/06/26 10:42:34;;;;;;;6.80;2.97;;;;;;;32.22;32.78;98040.09;4393838;32;20086;-83
2023/06/26 10:45:14;;;;;;;8.70;3.28;;;;;;;33.29;31.89;98047.91;4393946;32;20163;-83
2023/06/26 10:47:42;;;;;;;9.23;3.20;;;;;;;32.68;32.14;98036.66;4380925;32;20106;-83
2023/06/26 10:50:25;;;;;;;6.20;3.00;;;;;;;32.07;32.73;98042.13;4393606;32;20155;-83
2023/06/26 10:53:14;;;;;;;7.10;3.20;;;;;;;32.48;33.68;98034.81;4393973;32;20086;-80
2023/06/26 10:55:43;;;;;;;6.85;2.90;;;;;;;32.14;33.00;98038.44;4393566;32;20404;-80
2023/06/26 10:58:41;;;;;;;7.03;2.60;;;;;;;33.02;32.17;98032.94;4393705;32;20113;-80
2023/06/26 11:01:10;;;;;;;8.90;3.15;;;;;;;31.86;31.79;98033.25;4393720;32;20129;-80
2023/06/26 11:03:38;;;;;;;6.15;2.78;;;;;;;32.36;31.45;98033.78;4393322;32;20213;-81
2023/06/26 11:06:14;;;;;;;6.72;2.87;;;;;;;31.83;32.11;98031.00;4392831;32;20170;-81
2023/06/26 11:09:07;;;;;;;6.93;2.92;;;;;;;32.26;32.82;98028.00;4393028;32;20170;-80
2023/06/26 11:11:55;;;;;;;5.87;2.70;;;;;;;31.49;33.49;98026.53;4378219;32;20410;-80
2023/06/26 11:14:22;;;;;;;6.97;2.47;;;;;;;31.34;33.68;98028.50;4378026;32;20484;-80
2023/06/26 11:16:49;;;;;;;6.30;2.92;;;;;;;30.58;34.21;98036.38;4367594;32;20149;-81
2023/06/26 11:19:18;;;;;;;6.75;3.28;;;;;;;32.26;32.53;98024.50;4393991;32;20552;-80
2023/06/26 11:21:45;;;;;;;6.40;2.70;;;;;;;32.38;32.06;98023.72;4395402;32;20120;-80
2023/06/26 11:24:13;;;;;;;6.28;3.03;;;;;;;31.40;33.89;98025.06;4395104;32;20141;-84
2023/06/26 11:26:41;;;;;;;8.05;3.12;;;;;;;32.59;31.39;98029.88;4382376;32;20086;-85
2023/06/26 11:29:09;;;;;;;9.57;3.15;;;;;;;32.44;31.71;98033.59;4394071;32;20107;-83
2023/06/26 11:31:37;;;;;;;6.72;2.90;;;;;;;32.27;30.44;98034.16;4395616;32;20112;-79
2023/06/26 11:34:11;;;;;;;6.78;2.90;;;;;;;32.49;30.86;98031.09;4395114;32;20103;-79
2023/06/26 11:36:41;;;;;;;5.97;2.60;;;;;;;32.69;30.69;98027.63;4393586;32;20164;-82
2023/06/26 11:39:11;;;;;;;8.25;3.20;;;;;;;32.07;30.95;98026.13;4396190;32;20530;-82
2023/06/26 11:41:39;;;;;;;6.45;3.20;;;;;;;32.74;30.98;98028.63;4395341;32;20090;-82
2023/06/26 11:44:08;;;;;;;6.15;2.90;;;;;;;33.16;30.73;98023.03;4395711;32;20094;-82
2023/06/26 11:46:36;;;;;;;7.25;3.08;;;;;;;33.15;30.05;98016.03;4382810;32;20082;-83
2023/06/26 11:52:06;;;;;;;7.28;3.20;;;;;;;33.23;29.65;98013.97;4394700;32;20113;-83
2023/06/26 11:54:33;;;;;;;6.05;2.75;;;;;;;30.85;32.25;98024.12;4393073;32;20169;-83
2023/06/26 11:57:01;;;;;;;6.60;3.10;;;;;;;30.69;33.03;98017.25;4395374;32;20094;-83
2023/06/26 11:59:39;;;;;;;7.25;3.08;;;;;;;31.38;32.91;98013.78;4394995;32;20091;-84
2023/06/26 12:02:15;;;;;;;6.20;3.05;;;;;;;32.01;31.78;98014.41;4393762;32;20169;-84
2023/06/26 12:04:43;;;;;;;7.82;3.30;;;;;;;32.58;31.67;98007.69;4394209;32;20148;-83